Time;durP1;ratioP1;P1;durP2;ratioP2;P2;SDS_P1;SDS_P2;PMS_P1;PMS_P2;Temp;Humidity;BMP_temperature;BMP_pressure;BME280_temperature;BME280_humidity;BME280_pressure;Samples;Min_cycle;Max_cycle;Signal;HPM_P1;HPM_P2
2022/07/06 00:01:50;;;;;;;0.70;0.70;;;;;;;20.12;65.84;95903.00;4355588;32;20192;-65
2022/07/06 00:04:24;;;;;;;0.70;0.70;;;;;;;20.11;62.42;95902.22;4375351;32;20264;-65
2022/07/06 00:06:50;;;;;;;0.30;0.30;;;;;;;20.13;65.04;95915.37;4369576;32;20189;-65
2022/07/06 00:09:17;;;;;;;0.50;0.50;;;;;;;20.26;65.83;95911.50;4352395;32;20193;-65
2022/07/06 00:11:46;;;;;;;0.87;0.60;;;;;;;20.12;64.29;95919.19;4362281;32;20204;-65
2022/07/06 00:14:13;;;;;;;1.23;0.50;;;;;;;20.14;65.07;95916.94;4358210;32;20189;-65
2022/07/06 00:16:43;;;;;;;0.30;0.30;;;;;;;20.18;64.69;95910.50;4340065;32;20253;-65
2022/07/06 00:19:09;;;;;;;0.60;0.60;;;;;;;20.24;65.19;95914.53;4359313;32;20189;-65
2022/07/06 00:21:35;;;;;;;0.30;0.30;;;;;;;20.28;66.63;95917.34;4357594;32;20201;-65
2022/07/06 00:24:01;;;;;;;0.77;0.40;;;;;;;20.27;65.39;95907.69;4353049;32;20212;-65
2022/07/06 00:26:28;;;;;;;0.60;0.60;;;;;;;20.24;65.90;95905.69;4362884;32;20211;-65
2022/07/06 00:29:00;;;;;;;0.47;0.47;;;;;;;20.18;65.82;95904.34;4344907;32;20247;-65
2022/07/06 00:31:27;;;;;;;0.60;0.60;;;;;;;20.24;64.95;95916.44;4350907;32;20307;-65
2022/07/06 00:33:53;;;;;;;4.60;0.50;;;;;;;20.25;65.63;95905.34;4358113;32;20196;-64
2022/07/06 00:36:18;;;;;;;0.20;0.20;;;;;;;20.22;65.33;95900.63;4341919;32;20177;-65
2022/07/06 00:38:46;;;;;;;0.40;0.40;;;;;;;20.02;64.32;95895.38;4375265;32;20282;-65
2022/07/06 00:41:14;;;;;;;0.30;0.30;;;;;;;20.00;64.66;95903.03;4372382;32;20228;-65
2022/07/06 00:43:56;;;;;;;0.37;0.37;;;;;;;19.96;65.59;95902.13;4369721;32;20211;-65
2022/07/06 00:46:27;;;;;;;0.47;0.47;;;;;;;20.05;68.23;95900.87;4371590;32;20223;-65
2022/07/06 00:48:54;;;;;;;0.27;0.27;;;;;;;19.93;66.88;95908.22;4388181;32;20191;-65
2022/07/06 00:51:25;;;;;;;1.40;0.77;;;;;;;20.00;68.98;95897.62;4354935;32;20193;-64
2022/07/06 00:53:54;;;;;;;0.60;0.60;;;;;;;20.08;68.06;95900.22;4387370;32;20188;-64
2022/07/06 00:56:21;;;;;;;0.40;0.40;;;;;;;19.99;67.32;95896.06;4363280;32;20184;-65
2022/07/06 00:58:47;;;;;;;3.50;0.80;;;;;;;19.98;68.55;95895.28;4378244;32;20237;-64
2022/07/06 01:01:13;;;;;;;2.93;0.60;;;;;;;19.92;69.70;95890.47;4379876;32;20184;-65
2022/07/06 01:03:39;;;;;;;0.30;0.30;;;;;;;19.90;69.38;95891.59;4354897;32;20246;-65
2022/07/06 01:06:07;;;;;;;0.50;0.50;;;;;;;19.73;68.03;95891.06;4335905;32;20247;-65
2022/07/06 01:08:33;;;;;;;0.50;0.50;;;;;;;19.71;71.61;95888.69;4369667;32;20248;-64
2022/07/06 01:11:01;;;;;;;0.13;0.13;;;;;;;19.83;70.11;95891.38;4372538;32;20181;-65
2022/07/06 01:13:30;;;;;;;0.50;0.50;;;;;;;19.78;70.70;95888.91;4337294;32;20189;-65
2022/07/06 01:15:55;;;;;;;0.53;0.53;;;;;;;19.63;68.77;95886.09;4338774;32;20189;-65
2022/07/06 01:18:23;;;;;;;0.40;0.40;;;;;;;19.61;71.11;95883.75;4349783;32;20322;-64
2022/07/06 01:20:49;;;;;;;0.10;0.10;;;;;;;19.68;71.18;95878.59;4365567;32;20262;-65
2022/07/06 01:23:15;;;;;;;5.10;1.37;;;;;;;19.77;71.11;95873.88;4353902;32;20194;-65
2022/07/06 01:25:41;;;;;;;0.50;0.50;;;;;;;19.64;70.98;95874.22;4359420;32;20335;-65
2022/07/06 01:28:07;;;;;;;0.50;0.50;;;;;;;19.84;70.74;95874.09;4361792;32;20303;-65
2022/07/06 01:30:34;;;;;;;0.77;0.63;;;;;;;19.78;70.75;95867.34;4360539;32;20256;-65
2022/07/06 01:33:00;;;;;;;0.67;0.67;;;;;;;19.85;70.78;95862.19;4324437;32;20245;-65
2022/07/06 01:35:36;;;;;;;0.30;0.30;;;;;;;19.88;70.72;95863.44;4352136;32;20204;-65
2022/07/06 01:38:05;;;;;;;0.60;0.60;;;;;;;19.80;70.81;95859.72;4333306;32;20245;-65
2022/07/06 01:40:31;;;;;;;0.60;0.60;;;;;;;19.65;70.30;95865.81;4355860;32;20189;-64
2022/07/06 01:42:58;;;;;;;0.30;0.30;;;;;;;19.74;70.12;95871.09;4364108;32;20196;-65
2022/07/06 01:45:23;;;;;;;0.67;0.57;;;;;;;19.80;70.95;95867.03;4359930;32;20232;-65
2022/07/06 01:47:50;;;;;;;0.30;0.30;;;;;;;19.81;71.31;95863.22;4352581;32;20191;-64
2022/07/06 01:50:15;;;;;;;0.80;0.80;;;;;;;19.74;70.44;95876.47;4375996;32;20192;-65
2022/07/06 01:52:42;;;;;;;0.30;0.30;;;;;;;19.78;70.10;95888.13;4359042;32;20180;-65
2022/07/06 01:55:08;;;;;;;0.20;0.20;;;;;;;19.72;71.87;95884.09;4382665;32;20314;-65
2022/07/06 01:57:34;;;;;;;0.40;0.33;;;;;;;19.33;69.95;95882.81;4362291;32;20219;-64
2022/07/06 02:00:03;;;;;;;0.40;0.40;;;;;;;19.37;68.82;95879.13;4370235;32;20185;-64
2022/07/06 02:02:29;;;;;;;0.50;0.50;;;;;;;19.30;71.78;95878.13;4346152;32;20291;-65
2022/07/06 02:04:56;;;;;;;0.33;0.33;;;;;;;19.42;72.96;95875.41;4353505;32;20209;-64
2022/07/06 02:07:23;;;;;;;0.40;0.40;;;;;;;19.37;72.47;95872.94;4334709;32;20204;-64
2022/07/06 02:09:51;;;;;;;0.40;0.40;;;;;;;19.37;73.86;95873.72;4359388;32;20224;-64
2022/07/06 02:12:16;;;;;;;0.10;0.10;;;;;;;19.50;73.23;95877.25;4367067;32;20203;-65
2022/07/06 02:14:42;;;;;;;0.40;0.40;;;;;;;19.42;72.05;95870.81;4348348;32;20196;-65
2022/07/06 02:17:08;;;;;;;0.30;0.30;;;;;;;19.31;73.37;95877.00;4367546;32;20293;-65
2022/07/06 02:19:35;;;;;;;0.43;0.43;;;;;;;19.35;73.09;95875.19;4350845;32;20239;-64
2022/07/06 02:22:02;;;;;;;0.60;0.60;;;;;;;19.38;73.48;95885.28;4356532;32;20226;-65
2022/07/06 02:24:31;;;;;;;0.17;0.17;;;;;;;19.10;73.10;95877.87;4359196;32;20204;-65
2022/07/06 02:26:58;;;;;;;0.67;0.67;;;;;;;19.03;73.06;95888.38;4348239;32;20250;-65
2022/07/06 02:29:25;;;;;;;0.50;0.50;;;;;;;19.09;74.22;95884.38;4364589;32;20236;-65
2022/07/06 02:31:53;;;;;;;0.50;0.50;;;;;;;18.99;74.29;95892.84;4362586;32;20211;-65
2022/07/06 02:34:23;;;;;;;0.47;0.47;;;;;;;19.15;74.40;95893.78;4330017;32;20240;-65
2022/07/06 02:36:50;;;;;;;0.77;0.77;;;;;;;19.04;75.35;95895.31;4347159;32;20235;-65
2022/07/06 02:39:16;;;;;;;0.53;0.53;;;;;;;19.23;74.47;95892.91;4358096;32;20189;-64
2022/07/06 02:41:42;;;;;;;0.30;0.30;;;;;;;19.00;73.67;95896.31;4354446;32;20208;-65
2022/07/06 02:44:10;;;;;;;0.20;0.20;;;;;;;18.97;74.12;95892.37;4348493;32;20346;-65
2022/07/06 02:46:35;;;;;;;0.30;0.30;;;;;;;18.82;74.31;95895.72;4351648;32;20212;-65
2022/07/06 02:49:02;;;;;;;0.40;0.40;;;;;;;18.83;75.54;95891.91;4354240;32;20290;-65
2022/07/06 02:51:27;;;;;;;1.90;0.33;;;;;;;18.91;75.42;95887.56;4370066;32;20192;-64
2022/07/06 02:53:54;;;;;;;0.33;0.33;;;;;;;18.95;75.93;95893.84;4373358;32;20245;-65
2022/07/06 02:56:19;;;;;;;0.40;0.40;;;;;;;18.95;74.98;95891.94;4369229;32;20233;-64
2022/07/06 02:58:46;;;;;;;0.30;0.30;;;;;;;18.93;73.01;95901.44;4374165;32;20197;-65
2022/07/06 03:01:14;;;;;;;0.20;0.20;;;;;;;18.96;76.31;95896.19;4357940;32;20348;-65
2022/07/06 03:03:44;;;;;;;1.10;0.50;;;;;;;19.02;76.07;95892.19;4323763;32;20201;-65
2022/07/06 03:06:09;;;;;;;0.47;0.47;;;;;;;19.09;76.09;95895.13;4368149;32;20208;-65
2022/07/06 03:08:36;;;;;;;0.40;0.40;;;;;;;19.01;76.58;95903.28;4354069;32;20197;-65
2022/07/06 03:11:01;;;;;;;2.53;1.00;;;;;;;18.90;76.40;95907.50;4322706;32;20197;-65
2022/07/06 03:13:30;;;;;;;0.60;0.60;;;;;;;18.86;75.26;95902.00;4328953;32;20215;-65
2022/07/06 03:15:59;;;;;;;0.60;0.60;;;;;;;19.08;75.95;95904.31;4348692;32;20200;-65
2022/07/06 03:18:26;;;;;;;0.43;0.43;;;;;;;18.96;75.85;95906.16;4362886;32;20227;-65
2022/07/06 03:20:53;;;;;;;0.40;0.40;;;;;;;18.95;76.36;95908.06;4347067;32;20211;-65
2022/07/06 03:23:19;;;;;;;0.53;0.53;;;;;;;18.99;76.80;95911.66;4369679;32;20238;-64
2022/07/06 03:26:06;;;;;;;0.30;0.30;;;;;;;18.80;77.20;95912.16;4368224;32;20200;-65
2022/07/06 03:28:35;;;;;;;0.50;0.50;;;;;;;18.78;77.18;95910.94;4354564;32;20204;-65
2022/07/06 03:31:02;;;;;;;0.30;0.30;;;;;;;18.86;77.18;95908.16;4362405;32;20188;-65
2022/07/06 03:33:29;;;;;;;0.20;0.20;;;;;;;18.96;76.33;95909.63;4353303;32;20193;-65
2022/07/06 03:35:55;;;;;;;0.60;0.60;;;;;;;18.76;77.12;95908.56;4369718;32;20231;-64
2022/07/06 03:38:32;;;;;;;0.40;0.40;;;;;;;18.90;77.01;95902.13;4375948;32;20200;-65
2022/07/06 03:40:57;;;;;;;0.50;0.50;;;;;;;18.67;77.05;95904.41;4361719;32;20220;-65
2022/07/06 03:43:27;;;;;;;0.40;0.40;;;;;;;18.65;76.79;95903.94;4367866;32;20193;-65
2022/07/06 03:45:56;;;;;;;0.30;0.30;;;;;;;18.55;77.76;95900.50;4320186;32;20197;-65
2022/07/06 03:48:22;;;;;;;6.40;0.57;;;;;;;18.74;77.34;95896.56;4356763;32;20243;-65
2022/07/06 03:50:50;;;;;;;0.90;0.90;;;;;;;18.90;77.28;95892.16;4331781;32;20233;-66
2022/07/06 03:53:17;;;;;;;0.53;0.53;;;;;;;18.78;76.70;95892.09;4364592;32;20192;-65
2022/07/06 03:55:43;;;;;;;0.57;0.57;;;;;;;18.78;77.40;95898.28;4336834;32;20251;-65
2022/07/06 03:58:09;;;;;;;0.80;0.80;;;;;;;18.80;76.69;95903.31;4340360;32;20335;-65
2022/07/06 04:00:36;;;;;;;0.20;0.20;;;;;;;18.71;77.80;95907.97;4347861;32;20239;-66
2022/07/06 04:03:01;;;;;;;0.67;0.67;;;;;;;18.85;77.00;95905.81;4347681;32;20207;-65
2022/07/06 04:05:27;;;;;;;0.40;0.40;;;;;;;18.80;76.71;95904.09;4367087;32;20185;-65
2022/07/06 04:07:55;;;;;;;0.60;0.60;;;;;;;18.75;77.47;95900.84;4371521;32;20219;-64
2022/07/06 04:10:20;;;;;;;0.50;0.50;;;;;;;18.79;77.79;95907.13;4368803;32;20224;-64
2022/07/06 04:12:47;;;;;;;0.63;0.63;;;;;;;19.00;77.15;95902.47;4346645;32;20197;-65
2022/07/06 04:15:12;;;;;;;0.53;0.53;;;;;;;18.81;76.67;95911.06;4333896;32;20237;-64
2022/07/06 04:17:55;;;;;;;0.13;0.13;;;;;;;18.87;77.43;95914.34;4355700;32;20283;-64
2022/07/06 04:20:22;;;;;;;0.53;0.53;;;;;;;18.77;77.57;95917.41;4349925;32;20235;-64
2022/07/06 04:22:48;;;;;;;0.43;0.43;;;;;;;18.88;77.74;95921.28;4345043;32;20232;-64
2022/07/06 04:25:18;;;;;;;0.70;0.60;;;;;;;18.83;77.62;95918.78;4332477;32;20201;-64
2022/07/06 04:27:44;;;;;;;0.20;0.20;;;;;;;18.91;77.42;95917.94;4315812;32;20185;-65
2022/07/06 04:30:13;;;;;;;0.60;0.60;;;;;;;18.78;75.63;95921.69;4333221;32;20238;-65
2022/07/06 04:32:40;;;;;;;1.60;0.77;;;;;;;18.86;77.13;95918.13;4330896;32;20292;-65
2022/07/06 04:35:08;;;;;;;0.47;0.47;;;;;;;18.74;77.13;95921.56;4375452;32;20188;-65
2022/07/06 04:37:35;;;;;;;0.30;0.30;;;;;;;18.62;77.60;95924.19;4352786;32;20213;-64
2022/07/06 04:40:06;;;;;;;0.67;0.67;;;;;;;18.63;76.90;95927.69;4318508;32;20232;-65
2022/07/06 04:42:31;;;;;;;0.57;0.57;;;;;;;18.64;77.97;95923.87;4342840;32;20193;-65
2022/07/06 04:44:58;;;;;;;0.40;0.40;;;;;;;18.50;76.49;95924.88;4338275;32;20203;-64
2022/07/06 04:47:23;;;;;;;0.40;0.40;;;;;;;18.58;78.15;95930.53;4326437;32;20208;-65
2022/07/06 04:49:49;;;;;;;1.73;0.67;;;;;;;18.43;78.20;95935.38;4359139;32;20254;-65
2022/07/06 04:52:15;;;;;;;4.63;0.60;;;;;;;18.40;79.01;95932.56;4353081;32;20193;-65
2022/07/06 04:54:41;;;;;;;0.50;0.50;;;;;;;18.57;78.85;95927.06;4364727;32;20184;-65
2022/07/06 04:57:09;;;;;;;0.50;0.50;;;;;;;18.51;78.65;95922.97;4381308;32;20189;-64
2022/07/06 04:59:35;;;;;;;0.30;0.30;;;;;;;18.54;79.10;95925.81;4339068;32;20192;-65
2022/07/06 05:02:02;;;;;;;0.40;0.40;;;;;;;18.34;77.36;95926.59;4357435;32;20181;-65
2022/07/06 05:04:30;;;;;;;0.90;0.87;;;;;;;18.54;78.45;95923.13;4367276;32;20200;-64
2022/07/06 05:06:55;;;;;;;0.60;0.60;;;;;;;18.73;77.86;95929.94;4349377;32;20272;-65
2022/07/06 05:09:24;;;;;;;0.63;0.63;;;;;;;18.67;76.88;95931.28;4339096;32;20257;-64
2022/07/06 05:11:50;;;;;;;0.77;0.77;;;;;;;18.67;77.03;95933.97;4369576;32;20200;-64
2022/07/06 05:14:16;;;;;;;0.37;0.37;;;;;;;18.90;78.02;95937.87;4380662;32;20184;-65
2022/07/06 05:16:41;;;;;;;0.20;0.20;;;;;;;18.69;77.83;95935.22;4384107;32;20213;-65
2022/07/06 05:19:11;;;;;;;0.17;0.17;;;;;;;18.77;76.06;95928.97;4377310;32;20205;-64
2022/07/06 05:21:38;;;;;;;0.60;0.60;;;;;;;18.78;76.53;95927.06;4387804;32;20262;-64
2022/07/06 05:24:03;;;;;;;0.43;0.43;;;;;;;18.83;76.94;95929.56;4380875;32;20192;-64
2022/07/06 05:26:30;;;;;;;0.47;0.47;;;;;;;19.09;76.84;95929.31;4341319;32;20247;-64
2022/07/06 05:28:57;;;;;;;0.70;0.70;;;;;;;19.17;74.95;95939.16;4374671;32;20192;-64
2022/07/06 05:31:24;;;;;;;1.23;0.87;;;;;;;19.24;74.91;95931.34;4382219;32;20188;-64
2022/07/06 05:33:52;;;;;;;2.00;1.83;;;;;;;19.33;74.67;95936.66;4372823;32;20200;-64
2022/07/06 05:36:18;;;;;;;13.00;1.47;;;;;;;19.36;74.75;95935.97;4351254;32;20238;-64
2022/07/06 05:38:44;;;;;;;0.73;0.70;;;;;;;19.40;74.01;95934.97;4361336;32;20204;-64
2022/07/06 05:41:12;;;;;;;4.43;1.40;;;;;;;19.41;72.90;95933.84;4373063;32;20271;-64
2022/07/06 05:43:40;;;;;;;1.37;1.27;;;;;;;19.39;71.95;95936.06;4363269;32;20207;-65
2022/07/06 05:46:06;;;;;;;0.97;0.97;;;;;;;19.54;71.42;95940.81;4357419;32;20263;-65
2022/07/06 05:51:21;;;;;;;3.07;1.07;;;;;;;19.53;70.62;95954.66;4350216;32;20216;-65
2022/07/06 05:53:50;;;;;;;2.83;0.97;;;;;;;19.35;71.33;95955.91;4384675;32;20259;-64
2022/07/06 05:56:16;;;;;;;1.10;1.07;;;;;;;19.52;70.53;95955.78;4358398;32;20189;-64
2022/07/06 05:58:42;;;;;;;0.77;0.77;;;;;;;19.56;71.05;95953.97;4374480;32;20210;-64
2022/07/06 06:01:09;;;;;;;9.33;0.83;;;;;;;19.63;69.36;95948.81;4326510;32;20263;-65
2022/07/06 06:03:36;;;;;;;1.23;1.23;;;;;;;19.68;69.58;95956.69;4340964;32;20212;-64
2022/07/06 06:06:08;;;;;;;0.47;0.47;;;;;;;19.74;68.64;95955.34;4355589;32;20192;-64
2022/07/06 06:08:35;;;;;;;0.27;0.27;;;;;;;19.72;68.40;95952.19;4372355;32;20203;-64
2022/07/06 06:11:08;;;;;;;0.20;0.20;;;;;;;19.79;68.64;95957.78;4369710;32;20204;-64
2022/07/06 06:13:35;;;;;;;1.07;0.73;;;;;;;19.82;69.00;95953.66;4371386;32;20229;-65
2022/07/06 06:16:16;;;;;;;0.10;0.10;;;;;;;19.88;70.09;95965.78;4340473;32;20209;-64
2022/07/06 06:18:45;;;;;;;6.03;0.63;;;;;;;19.94;68.89;95958.25;4363601;32;20258;-65
2022/07/06 06:21:12;;;;;;;0.97;0.70;;;;;;;19.93;68.04;95962.06;4351293;32;20276;-64
2022/07/06 06:23:39;;;;;;;0.60;0.60;;;;;;;19.97;68.71;95966.44;4342780;32;20257;-64
2022/07/06 06:26:06;;;;;;;0.10;0.10;;;;;;;19.96;68.07;95964.84;4373234;32;20236;-64
2022/07/06 06:28:33;;;;;;;0.23;0.23;;;;;;;19.99;68.38;95961.50;4372099;32;20184;-64
2022/07/06 06:30:59;;;;;;;2.23;0.67;;;;;;;20.12;68.85;95962.28;4371334;32;20223;-64
2022/07/06 06:33:26;;;;;;;0.43;0.43;;;;;;;20.12;67.51;95964.97;4367630;32;20247;-64
2022/07/06 06:35:53;;;;;;;0.63;0.33;;;;;;;20.15;66.62;95967.00;4343582;32;20252;-64
2022/07/06 06:38:20;;;;;;;0.53;0.53;;;;;;;20.05;68.31;95962.06;4352569;32;20201;-64
2022/07/06 06:40:47;;;;;;;0.77;0.70;;;;;;;20.16;67.27;95960.50;4360823;32;20210;-64
2022/07/06 06:43:15;;;;;;;0.40;0.40;;;;;;;20.31;66.37;95964.41;4366033;32;20193;-64
2022/07/06 06:45:41;;;;;;;0.93;0.93;;;;;;;20.12;67.49;95964.97;4356828;32;20291;-64
2022/07/06 06:48:08;;;;;;;0.50;0.50;;;;;;;20.28;65.91;95971.25;4361839;32;20200;-65
2022/07/06 06:50:34;;;;;;;0.50;0.50;;;;;;;20.35;65.82;95973.38;4381063;32;20207;-64
2022/07/06 06:53:02;;;;;;;0.27;0.27;;;;;;;20.51;64.53;95964.28;4363060;32;20295;-64
2022/07/06 06:55:30;;;;;;;0.33;0.33;;;;;;;20.43;65.70;95975.97;4368292;32;20228;-64
2022/07/06 06:57:57;;;;;;;0.33;0.33;;;;;;;20.62;64.99;95964.56;4325418;32;20193;-66
2022/07/06 07:00:24;;;;;;;0.20;0.20;;;;;;;20.75;64.08;95966.12;4362083;32;20200;-65
2022/07/06 07:02:52;;;;;;;0.30;0.30;;;;;;;20.86;62.63;95966.41;4350410;32;20236;-65
2022/07/06 07:05:23;;;;;;;0.97;0.70;;;;;;;20.67;61.98;95971.66;4345054;32;20190;-65
2022/07/06 07:07:49;;;;;;;0.50;0.50;;;;;;;20.75;61.93;95968.81;4326069;32;20200;-64
2022/07/06 07:10:14;;;;;;;0.30;0.30;;;;;;;20.80;61.72;95967.78;4359443;32;20204;-66
2022/07/06 07:12:44;;;;;;;0.77;0.63;;;;;;;20.79;62.01;95966.19;4341238;32;20284;-66
2022/07/06 07:15:11;;;;;;;0.50;0.50;;;;;;;20.90;61.55;95970.78;4318587;32;21608;-65
2022/07/06 07:17:38;;;;;;;0.60;0.60;;;;;;;21.22;61.36;95968.97;4291553;33;20193;-65
2022/07/06 07:20:05;;;;;;;0.50;0.50;;;;;;;21.07;61.49;95972.41;4325660;32;20202;-65
2022/07/06 07:22:31;;;;;;;0.20;0.20;;;;;;;21.39;59.92;95959.78;4303969;33;20201;-64
2022/07/06 07:24:58;;;;;;;0.70;0.70;;;;;;;21.40;59.07;95965.97;4337045;32;20224;-64
2022/07/06 07:27:25;;;;;;;0.20;0.20;;;;;;;21.32;59.60;95969.63;4313843;32;20204;-68
2022/07/06 07:29:55;;;;;;;0.37;0.37;;;;;;;21.11;60.29;95962.50;4325047;32;20204;-66
2022/07/06 07:32:20;;;;;;;0.33;0.33;;;;;;;21.09;61.74;95970.13;4340534;32;20197;-64
2022/07/06 07:34:46;;;;;;;0.47;0.47;;;;;;;21.17;60.73;95968.44;4344187;32;20232;-64
2022/07/06 07:37:14;;;;;;;0.57;0.57;;;;;;;21.27;60.38;95970.63;4334748;32;20193;-66
2022/07/06 07:39:42;;;;;;;0.47;0.47;;;;;;;21.32;60.37;95972.31;4333933;32;20193;-63
2022/07/06 07:42:10;;;;;;;0.33;0.33;;;;;;;21.42;58.04;95969.09;4353369;32;20211;-65
2022/07/06 07:44:38;;;;;;;0.40;0.40;;;;;;;21.33;59.11;95968.47;4352529;32;20240;-65
2022/07/06 07:47:07;;;;;;;0.73;0.50;;;;;;;21.47;59.99;95958.81;4358707;32;20236;-65
2022/07/06 07:49:33;;;;;;;0.60;0.60;;;;;;;21.44;59.66;95956.81;4329792;32;20215;-65
2022/07/06 07:51:59;;;;;;;0.60;0.60;;;;;;;21.46;60.29;95959.16;4340246;32;20208;-65
2022/07/06 07:54:24;;;;;;;0.20;0.20;;;;;;;21.52;58.78;95963.19;4345855;32;20193;-65
2022/07/06 07:56:54;;;;;;;0.80;0.80;;;;;;;21.57;57.18;95962.94;4331141;32;20043;-64
2022/07/06 07:59:22;;;;;;;0.47;0.47;;;;;;;21.61;57.50;95967.28;4313519;32;20260;-65
2022/07/06 08:01:49;;;;;;;0.50;0.50;;;;;;;21.58;55.74;95961.81;4350949;32;20210;-65
2022/07/06 08:04:17;;;;;;;0.50;0.50;;;;;;;21.69;56.14;95968.25;4322407;32;20265;-65
2022/07/06 08:06:43;;;;;;;0.20;0.20;;;;;;;21.77;57.57;95970.00;4329457;32;20211;-66
2022/07/06 08:09:08;;;;;;;0.90;0.90;;;;;;;21.73;57.12;95961.03;4323540;32;20197;-66
2022/07/06 08:11:35;;;;;;;0.30;0.30;;;;;;;21.73;51.66;95966.41;4346398;32;20200;-65
2022/07/06 08:14:03;;;;;;;0.50;0.50;;;;;;;21.66;51.33;95968.16;4349657;32;20193;-64
2022/07/06 08:16:30;;;;;;;0.50;0.50;;;;;;;21.63;51.37;95966.94;4347485;32;20208;-64
2022/07/06 08:19:00;;;;;;;0.47;0.47;;;;;;;21.66;53.03;95958.12;4346933;32;20207;-64
2022/07/06 08:21:26;;;;;;;1.57;0.80;;;;;;;21.59;54.24;95966.88;4340321;32;20205;-64
2022/07/06 08:24:15;;;;;;;0.33;0.33;;;;;;;21.60;54.05;95967.66;4326209;32;20269;-64
2022/07/06 08:26:42;;;;;;;0.73;0.73;;;;;;;21.66;55.11;95968.94;4317408;32;21288;-65
2022/07/06 08:29:08;;;;;;;0.47;0.47;;;;;;;21.70;56.21;95972.53;4347329;32;20209;-65
2022/07/06 08:31:35;;;;;;;0.60;0.60;;;;;;;21.65;55.37;95966.59;4348343;32;20192;-65
2022/07/06 08:34:02;;;;;;;0.33;0.33;;;;;;;21.65;55.09;95972.00;4354804;32;20189;-64
2022/07/06 08:36:29;;;;;;;0.40;0.40;;;;;;;21.75;55.17;95964.16;4316075;32;20197;-64
2022/07/06 08:38:56;;;;;;;0.43;0.30;;;;;;;21.83;56.22;95971.28;4298615;32;20261;-65
2022/07/06 08:41:39;;;;;;;0.60;0.60;;;;;;;21.84;56.34;95969.37;4350943;32;20208;-64
2022/07/06 08:44:06;;;;;;;0.47;0.47;;;;;;;21.90;56.32;95968.75;4330781;32;20215;-64
2022/07/06 08:46:32;;;;;;;0.77;0.53;;;;;;;21.94;56.39;95963.44;4351842;32;20181;-64
2022/07/06 08:49:00;;;;;;;0.67;0.67;;;;;;;21.91;56.20;95962.22;4356983;32;20227;-64
2022/07/06 08:51:30;;;;;;;0.30;0.30;;;;;;;22.01;55.68;95968.28;4350107;32;20243;-64
2022/07/06 08:53:58;;;;;;;0.57;0.57;;;;;;;22.02;55.82;95972.56;4348278;32;20228;-64
2022/07/06 08:56:26;;;;;;;0.60;0.60;;;;;;;21.90;56.19;95976.87;4341495;32;20255;-64
2022/07/06 08:58:54;;;;;;;0.73;0.73;;;;;;;21.94;56.15;95980.44;4316395;32;20227;-64
2022/07/06 09:01:22;;;;;;;0.33;0.33;;;;;;;22.03;54.19;95977.56;4303951;33;20267;-64
2022/07/06 09:03:50;;;;;;;0.27;0.27;;;;;;;22.03;53.69;95977.56;4341610;32;20283;-65
2022/07/06 09:06:26;;;;;;;0.73;0.73;;;;;;;22.06;52.01;95981.50;4338174;32;20201;-64
2022/07/06 09:09:04;;;;;;;0.87;0.87;;;;;;;22.10;50.92;95982.38;4351850;32;20192;-64
2022/07/06 09:11:32;;;;;;;0.43;0.43;;;;;;;22.16;52.86;95992.59;4355978;32;20326;-65
2022/07/06 09:13:59;;;;;;;0.40;0.40;;;;;;;22.14;52.99;95992.16;4342677;32;20197;-64
2022/07/06 09:16:28;;;;;;;0.80;0.67;;;;;;;22.13;54.51;95990.56;4377320;32;20230;-65
2022/07/06 09:19:02;;;;;;;0.30;0.30;;;;;;;22.13;53.55;95987.88;4374718;32;20266;-64
2022/07/06 09:21:31;;;;;;;0.93;0.83;;;;;;;22.16;54.16;95991.78;4381190;32;20210;-65
2022/07/06 09:24:02;;;;;;;0.53;0.53;;;;;;;22.17;55.72;95996.84;4373153;32;20189;-65
2022/07/06 09:26:30;;;;;;;0.20;0.20;;;;;;;22.26;55.56;95997.44;4363995;32;20201;-64
2022/07/06 09:28:59;;;;;;;0.33;0.33;;;;;;;22.27;55.17;95993.59;4335257;32;20224;-65
2022/07/06 09:31:26;;;;;;;0.90;0.73;;;;;;;22.22;52.31;95990.41;4330380;32;20264;-65
2022/07/06 09:33:59;;;;;;;0.83;0.83;;;;;;;22.23;53.25;95991.97;4366885;32;20196;-65
2022/07/06 09:36:43;;;;;;;4.20;0.73;;;;;;;22.31;54.15;95998.31;4337740;32;20228;-65
2022/07/06 09:39:29;;;;;;;0.33;0.33;;;;;;;22.35;53.52;95999.19;4365280;32;20197;-65
2022/07/06 09:42:01;;;;;;;0.83;0.83;;;;;;;22.33;53.35;96004.16;4365769;32;20188;-65
2022/07/06 09:44:40;;;;;;;3.03;1.37;;;;;;;22.33;55.59;95999.53;4378654;32;20188;-65
2022/07/06 09:47:20;;;;;;;1.30;0.80;;;;;;;22.42;53.23;95992.03;4366038;32;20232;-64
2022/07/06 09:49:48;;;;;;;0.50;0.50;;;;;;;22.41;53.39;95997.78;4385171;32;20210;-65
2022/07/06 09:52:15;;;;;;;0.40;0.40;;;;;;;22.50;53.31;95995.66;4363299;32;20267;-64
2022/07/06 09:54:43;;;;;;;0.70;0.70;;;;;;;22.58;54.28;95995.47;4378570;32;22653;-64
2022/07/06 09:57:09;;;;;;;0.50;0.50;;;;;;;22.65;54.34;95999.47;4373136;32;20214;-64
2022/07/06 09:59:36;;;;;;;0.77;0.77;;;;;;;22.68;52.34;95996.03;4365890;32;20206;-62
2022/07/06 10:02:14;;;;;;;0.50;0.50;;;;;;;22.70;52.15;96007.28;4314536;32;20200;-64
2022/07/06 10:04:49;;;;;;;4.57;0.37;;;;;;;22.73;50.94;95993.84;4375253;32;20272;-64
2022/07/06 10:07:21;;;;;;;0.40;0.40;;;;;;;22.94;53.19;95997.00;4355624;32;20238;-64
2022/07/06 10:09:59;;;;;;;0.33;0.33;;;;;;;23.02;50.37;95995.25;4318607;32;20254;-64
2022/07/06 10:12:27;;;;;;;1.00;1.00;;;;;;;23.02;50.80;95987.13;4352242;32;20196;-64
2022/07/06 10:14:52;;;;;;;1.50;1.40;;;;;;;22.98;52.08;95994.38;4376663;32;20199;-64
2022/07/06 10:17:27;;;;;;;2.37;1.40;;;;;;;23.06;49.44;95985.28;4361343;32;20247;-65
2022/07/06 10:19:55;;;;;;;0.47;0.47;;;;;;;23.05;47.17;95989.12;4372157;32;20192;-65
2022/07/06 10:22:24;;;;;;;0.60;0.60;;;;;;;23.02;49.16;95984.41;4385429;32;20192;-65
2022/07/06 10:24:51;;;;;;;0.73;0.73;;;;;;;23.02;49.77;95989.84;4384880;32;20252;-64
2022/07/06 10:27:19;;;;;;;0.40;0.40;;;;;;;23.10;49.50;95986.09;4363730;32;20249;-65
2022/07/06 10:29:50;;;;;;;0.77;0.77;;;;;;;23.13;49.80;95990.81;4357231;32;20185;-65
2022/07/06 10:32:19;;;;;;;0.50;0.50;;;;;;;23.22;49.99;95987.91;4374375;32;20192;-65
2022/07/06 10:34:50;;;;;;;0.83;0.83;;;;;;;23.17;50.24;95980.84;4386472;32;20193;-65
2022/07/06 10:37:28;;;;;;;0.30;0.30;;;;;;;23.16;49.86;95979.28;4372917;32;20207;-64
2022/07/06 10:42:58;;;;;;;0.40;0.40;;;;;;;23.28;48.21;95973.69;4349544;32;20239;-65
2022/07/06 10:45:33;;;;;;;0.77;0.53;;;;;;;23.17;48.82;95975.41;4340171;32;20197;-65
2022/07/06 10:48:17;;;;;;;0.50;0.50;;;;;;;23.14;47.23;95981.56;4355807;32;20210;-65
2022/07/06 10:50:50;;;;;;;0.30;0.30;;;;;;;23.21;47.32;95980.91;4364342;32;20203;-65
2022/07/06 10:53:33;;;;;;;1.27;0.77;;;;;;;23.08;49.14;95976.78;4363302;32;20234;-65
2022/07/06 10:55:58;;;;;;;0.63;0.63;;;;;;;23.10;50.43;95969.87;4324517;32;20197;-65
2022/07/06 10:59:08;;;;;;;1.03;1.03;;;;;;;23.25;49.89;95979.84;4375865;32;20204;-65
2022/07/06 11:01:36;;;;;;;0.73;0.73;;;;;;;23.25;48.87;95970.94;4298782;33;20189;-68
2022/07/06 11:04:14;;;;;;;0.60;0.60;;;;;;;23.37;47.44;95983.53;4294114;33;20264;-65
2022/07/06 11:06:41;;;;;;;0.80;0.80;;;;;;;23.33;47.48;95977.25;4287206;33;20217;-63
2022/07/06 11:09:11;;;;;;;0.87;0.73;;;;;;;23.31;48.11;95981.09;4304951;32;20270;-62
2022/07/06 11:11:47;;;;;;;1.13;1.13;;;;;;;23.42;48.58;95975.88;4364000;32;20262;-62
2022/07/06 11:14:21;;;;;;;0.47;0.47;;;;;;;23.54;46.94;95977.66;4347206;32;20213;-64
2022/07/06 11:16:49;;;;;;;0.30;0.30;;;;;;;23.55;47.14;95979.22;4346412;32;20204;-64
2022/07/06 11:19:25;;;;;;;0.10;0.10;;;;;;;23.59;46.11;95977.37;4339860;32;20190;-65
2022/07/06 11:22:10;;;;;;;0.63;0.63;;;;;;;23.62;45.70;95974.72;4300229;32;20193;-63
2022/07/06 11:24:38;;;;;;;1.53;0.77;;;;;;;23.70;46.19;95974.84;4333621;32;20470;-64
2022/07/06 11:27:06;;;;;;;0.63;0.63;;;;;;;23.76;45.04;95973.41;4361811;32;20207;-63
2022/07/06 11:29:39;;;;;;;0.27;0.27;;;;;;;23.56;46.58;95973.47;4355747;32;20181;-60
2022/07/06 11:32:10;;;;;;;0.33;0.33;;;;;;;23.52;46.75;95975.31;4343495;32;20189;-63
2022/07/06 11:34:41;;;;;;;0.63;0.50;;;;;;;23.54;47.54;95966.81;4343520;32;20226;-63
2022/07/06 11:37:12;;;;;;;0.73;0.60;;;;;;;23.65;46.57;95981.34;4340314;32;20246;-66
2022/07/06 11:39:43;;;;;;;2.17;0.70;;;;;;;23.61;46.31;95961.53;4301744;32;20221;-62
2022/07/06 11:42:20;;;;;;;0.67;0.67;;;;;;;23.50;45.23;95965.94;4324160;32;20201;-62
2022/07/06 11:44:50;;;;;;;0.23;0.23;;;;;;;23.54;47.42;95956.00;4349083;32;20183;-62
2022/07/06 11:47:18;;;;;;;0.50;0.50;;;;;;;23.33;47.42;95952.88;4332684;32;20200;-62